地図

経路データ

SID SEASON NUMBER BASIN SUBBASIN NAME ISO_TIME NATURE LAT LON WMO_WIND WMO_PRES WMO_AGENCY TRACK_TYPE DIST2LAND LANDFALL IFLAG USA_AGENCY USA_ATCF_ID USA_LAT USA_LON USA_RECORD USA_STATUS USA_WIND USA_PRES USA_SSHS USA_R34_NE USA_R34_SE USA_R34_SW USA_R34_NW USA_R50_NE USA_R50_SE USA_R50_SW USA_R50_NW USA_R64_NE USA_R64_SE USA_R64_SW USA_R64_NW USA_POCI USA_ROCI USA_RMW USA_EYE TOKYO_LAT TOKYO_LON TOKYO_GRADE TOKYO_WIND TOKYO_PRES TOKYO_R50_DIR TOKYO_R50_LONG TOKYO_R50_SHORT TOKYO_R30_DIR TOKYO_R30_LONG TOKYO_R30_SHORT TOKYO_LAND CMA_LAT CMA_LON CMA_CAT CMA_WIND CMA_PRES HKO_LAT HKO_LON HKO_CAT HKO_WIND HKO_PRES NEWDELHI_LAT NEWDELHI_LON NEWDELHI_GRADE NEWDELHI_WIND NEWDELHI_PRES NEWDELHI_CI NEWDELHI_DP NEWDELHI_POCI REUNION_LAT REUNION_LON REUNION_TYPE REUNION_WIND REUNION_PRES REUNION_TNUM REUNION_CI REUNION_RMW REUNION_R34_NE REUNION_R34_SE REUNION_R34_SW REUNION_R34_NW REUNION_R50_NE REUNION_R50_SE REUNION_R50_SW REUNION_R50_NW REUNION_R64_NE REUNION_R64_SE REUNION_R64_SW REUNION_R64_NW BOM_LAT BOM_LON BOM_TYPE BOM_WIND BOM_PRES BOM_TNUM BOM_CI BOM_RMW BOM_R34_NE BOM_R34_SE BOM_R34_SW BOM_R34_NW BOM_R50_NE BOM_R50_SE BOM_R50_SW BOM_R50_NW BOM_R64_NE BOM_R64_SE BOM_R64_SW BOM_R64_NW BOM_ROCI BOM_POCI BOM_EYE BOM_POS_METHOD BOM_PRES_METHOD NADI_LAT NADI_LON NADI_CAT NADI_WIND NADI_PRES WELLINGTON_LAT WELLINGTON_LON WELLINGTON_WIND WELLINGTON_PRES DS824_LAT DS824_LON DS824_STAGE DS824_WIND DS824_PRES TD9636_LAT TD9636_LON TD9636_STAGE TD9636_WIND TD9636_PRES TD9635_LAT TD9635_LON TD9635_WIND TD9635_PRES TD9635_ROCI NEUMANN_LAT NEUMANN_LON NEUMANN_CLASS NEUMANN_WIND NEUMANN_PRES MLC_LAT MLC_LON MLC_CLASS MLC_WIND MLC_PRES USA_GUST BOM_GUST BOM_GUST_PER REUNION_GUST REUNION_GUST_PER USA_SEAHGT USA_SEARAD_NE USA_SEARAD_SE USA_SEARAD_SW USA_SEARAD_NW STORM_SPEED STORM_DIR
1984057S14124 1984 22 SI WA CHLOE 1984-02-25 21:00:00 NR -14.0000 123.700 25 1002 bom main 175 175 ______O___O___ -1 -14.0000 123.700 20 25 1002 2.00000 -14.0000 123.700 1 22 4 243
1984057S14124 1984 22 SI WA CHLOE 1984-02-26 00:00:00 TS -14.1000 123.500 25 1002 bom main 186 186 ______O___O_O_ -1 -14.1000 123.500 20 25 1002 2.00000 -14.1000 123.500 1 22 -14.1000 123.500 TC 25 1002 4 231
1984057S14124 1984 22 SI WA CHLOE 1984-02-26 03:00:00 TS -14.2521 123.381 25 1001 bom main 180 180 ______O___P_P_ -1 -14.3000 123.400 20 25 1001 2.00000 -14.1856 123.351 1 23 -14.2800 123.398 TC 30 1000 3 220
1984057S14124 1984 22 SI WA CHLOE 1984-02-26 06:00:00 TS -14.3522 123.284 30 998 bom main 178 178 ______O___P_O_ -1 -14.4000 123.300 20 30 998 2.50000 -14.2687 123.256 1 24 -14.4000 123.300 TC 35 998 2 236
1984057S14124 1984 22 SI WA CHLOE 1984-02-26 09:00:00 TS -14.3675 123.210 40 994 bom main 186 178 ______O___P_P_ -1 -14.3000 123.200 30 40 994 3.00000 -14.3674 123.209 1 25 -14.4350 123.220 TC 40 994 2 208
1984057S14124 1984 22 SI WA CHLOE 1984-02-26 12:00:00 TS -14.5000 123.200 45 990 bom main 178 155 ______O___O_O_ -1 -14.5000 123.200 30 45 990 3.00000 -14.5000 123.200 1 27 -14.5000 123.200 TC 45 990 3 169
1984057S14124 1984 22 SI WA CHLOE 1984-02-26 15:00:00 TS -14.7042 123.276 50 985 bom main 155 126 ______O___P_P_ -1 -14.7000 123.300 30 50 985 3.50000 -14.6850 123.234 1 35 -14.7275 123.292 TC 52 985 5 161
1984057S14124 1984 22 SI WA CHLOE 1984-02-26 18:00:00 TS -14.9683 123.367 55 980 bom main 126 116 ______O___P_O_ -1 -15.0000 123.400 30 55 980 4.00000 -14.9050 123.300 1 43 -15.0000 123.400 TC 60 980 5 163
1984057S14124 1984 22 SI WA CHLOE 1984-02-26 21:00:00 TS -15.1800 123.429 55 980 bom main 116 95 ______O___P_P_ -1 -15.2000 123.500 30 55 980 4.00000 -15.1475 123.365 1 51 -15.1925 123.423 TC 60 980 5 172
1984057S14124 1984 22 SI WA CHLOE 1984-02-27 00:00:00 TS -15.4154 123.423 55 980 bom main 95 64 O_____O___O_O_ jtwc_sh SH261984 -15.6000 123.700 35 0 -15.4000 123.400 30 55 980 4.00000 -15.4000 123.400 2 59 -15.4000 123.400 TC 60 980 5 185
1984057S14124 1984 22 SI WA CHLOE 1984-02-27 03:00:00 TS -15.6971 123.390 55 980 bom main 64 46 P_____O___P_P_ SH261984 -15.8025 123.568 37 0 -15.7000 123.300 30 55 980 4.00000 -15.6384 123.417 2 59 -15.7000 123.365 TC 60 980 6 188
1984057S14124 1984 22 SI WA CHLOE 1984-02-27 06:00:00 TS -15.9692 123.344 55 980 bom main 46 33 O_____O___P_O_ jtwc_sh SH261984 -16.0000 123.400 40 0 -16.0000 123.300 30 55 980 4.00000 -15.8844 123.392 2 59 -16.0000 123.300 TC 60 980 5 195
1984057S14124 1984 22 SI WA CHLOE 1984-02-27 09:00:00 TS -16.1864 123.255 55 980 bom main 33 15 P_____O___P_P_ SH261984 -16.1925 123.172 42 0 -16.2000 123.300 30 55 980 4.00000 -16.1382 123.295 2 59 -16.2149 123.252 TC 60 980 5 213
1984057S14124 1984 22 SI WA CHLOE 1984-02-27 12:00:00 TS -16.4000 123.050 55 980 bom main 15 0 O_____O___O_O_ jtwc_sh SH261984 -16.4000 122.900 45 0 -16.4000 123.100 30 55 980 4.00000 -16.4000 123.100 2 59 -16.4000 123.100 TC 60 980 6 230
1984057S14124 1984 22 SI WA CHLOE 1984-02-27 15:00:00 TS -16.6011 122.737 55 980 bom main 10 10 P_____O___P_P_ SH261984 -16.6424 122.622 45 0 -16.5000 122.800 30 55 980 4.00000 -16.6845 122.772 2 60 -16.5776 122.752 TC 60 980 9 236
1984057S14124 1984 22 SI WA CHLOE 1984-02-27 18:00:00 TS -16.8683 122.312 55 980 bom main 21 15 O_____O___P_O_ jtwc_sh SH261984 -16.9000 122.300 45 0 -16.8000 122.300 30 55 980 4.50000 -16.9732 122.348 2 62 -16.8000 122.300 TC 60 980 10 235
1984057S14124 1984 22 SI WA CHLOE 1984-02-27 21:00:00 TS -17.1569 121.893 55 980 bom main 33 33 P_____O___P_P_ SH261984 -17.1349 121.937 47 0 -17.1000 121.900 30 55 980 4.50000 -17.2501 121.875 2 63 -17.1425 121.858 TC 65 977 10 234
1984057S14124 1984 22 SI WA CHLOE 1984-02-28 00:00:00 TS -17.4750 121.425 65 975 bom main 75 75 O_____O___O_O_ jtwc_sh SH261984 -17.4000 121.500 50 0 -17.5000 121.400 40 65 975 4.50000 -17.5000 121.400 4 65 -17.5000 121.400 TC 70 975 11 237
1984057S14124 1984 22 SI WA CHLOE 1984-02-28 03:00:00 TS -17.7523 120.947 65 975 bom main 123 123 P_____O___P_P_ SH261984 -17.7426 120.965 55 0 -17.8000 120.900 40 65 975 4.50000 -17.6791 120.988 4 65 -17.7875 120.935 TC 70 975 10 240
1984057S14124 1984 22 SI WA CHLOE 1984-02-28 06:00:00 TS -17.9837 120.496 65 975 bom main 143 143 O_____O___P_O_ jtwc_sh SH261984 -18.1000 120.400 60 0 -18.0000 120.500 40 65 975 4.50000 -17.8347 120.584 4 65 -18.0000 120.500 TC 70 975 9 243
1984057S14124 1984 22 SI WA CHLOE 1984-02-28 09:00:00 TS -18.1513 120.125 65 975 bom main 174 174 P_____O___P_P_ SH261984 -18.4225 119.870 62 0 -18.1000 120.300 40 65 975 4.50000 -17.9979 120.188 4 65 -18.0848 120.142 TC 70 975 8 246
1984057S14124 1984 22 SI WA CHLOE 1984-02-28 12:00:00 TS -18.3250 119.700 65 975 bom main 186 162 O_____O___O_O_ jtwc_sh SH261984 -18.7000 119.400 65 1 -18.2000 119.800 40 65 975 4.50000 -18.2000 119.800 4 65 -18.2000 119.800 TC 70 975 9 239
1984057S14124 1984 22 SI WA CHLOE 1984-02-28 15:00:00 TS -18.6062 119.328 65 973 bom main 165 134 P_____O___P_P_ SH261984 -18.9148 119.020 65 1 -18.5000 119.500 40 65 973 4.50000 -18.4900 119.394 4 71 -18.5200 119.400 TC 72 971 10 231
1984057S14124 1984 22 SI WA CHLOE 1984-02-28 18:00:00 TS -18.9300 118.925 70 968 bom main 135 109 O_____O___P_O_ jtwc_sh SH261984 -19.1000 118.700 65 1 -18.9000 119.000 40 70 968 4.50000 -18.8201 118.998 4 78 -18.9000 119.000 TC 75 968 10 228
1984057S14124 1984 22 SI WA CHLOE 1984-02-28 21:00:00 TS -19.2469 118.581 80 960 bom main 113 100 P_____O___P_P_ SH261984 -19.3000 118.377 67 1 -19.3000 118.700 40 80 960 4.50000 -19.1651 118.628 4 85 -19.2225 118.620 TC 85 961 9 228
1984057S14124 1984 22 SI WA CHLOE 1984-02-29 00:00:00 TS -19.5000 118.250 90 955 bom main 100 78 O_____O___O_O_ jtwc_sh SH261984 -19.5000 118.100 70 1 -19.5000 118.300 40 90 955 4.50000 -19.5000 118.300 4 92 -19.5000 118.300 TC 95 955 7 228
1984057S14124 1984 22 SI WA CHLOE 1984-02-29 03:00:00 TS -19.7192 118.031 90 955 bom main 78 59 P_____O___P_P_ SH261984 -19.6999 117.892 70 1 -19.7000 118.100 40 90 955 5.00000 -19.7847 118.047 4 92 -19.6924 118.085 TC 95 955 6 222
1984057S14124 1984 22 SI WA CHLOE 1984-02-29 06:00:00 TS -19.9392 117.833 90 955 bom main 64 45 O_____O___P_O_ jtwc_sh SH261984 -19.9000 117.700 70 1 -19.9000 117.900 40 90 955 5.00000 -20.0567 117.834 4 92 -19.9000 117.900 TC 95 955 7 220
1984057S14124 1984 22 SI WA CHLOE 1984-02-29 09:00:00 TS -20.2132 117.586 90 955 bom main 45 30 P_____O___P_P_ SH261984 -20.0925 117.450 72 1 -20.2000 117.600 40 90 955 5.00000 -20.3254 117.628 4 92 -20.2350 117.665 TC 95 955 7 218
1984057S14124 1984 22 SI WA CHLOE 1984-02-29 12:00:00 TS -20.5250 117.350 90 955 bom main 30 0 O_____O___O_O_ jtwc_sh SH261984 -20.3000 117.200 75 1 -20.6000 117.400 40 90 955 5.00000 -20.6000 117.400 4 92 -20.6000 117.400 TC 95 955 8 217
1984057S14124 1984 22 SI WA CHLOE 1984-02-29 15:00:00 TS -20.8360 117.080 90 958 bom main 0 0 P_____O___P_P_ SH261984 -20.5274 117.000 75 1 -21.0000 117.100 40 90 958 3 -20.9091 117.104 4 85 -20.9074 117.115 TC 85 960 8 222
1984057S14124 1984 22 SI WA CHLOE 1984-02-29 18:00:00 TS -21.1056 116.795 75 965 bom main 0 0 O_____O___P_O_ jtwc_sh SH261984 -20.8000 116.800 75 1 -21.2000 116.800 40 75 965 -21.2226 116.780 4 78 -21.2000 116.800 TC 75 965 8 224
1984057S14124 1984 22 SI WA CHLOE 1984-02-29 21:00:00 TS -21.3955 116.493 60 970 bom main 0 0 P_____O___P_P_ SH261984 -21.1349 116.580 70 1 -21.4000 116.500 30 60 970 -21.5247 116.441 4 71 -21.5225 116.450 TC 67 970 9 224
1984057S14124 1984 22 SI WA CHLOE 1984-03-01 00:00:00 TS -21.7250 116.150 50 975 bom main 0 0 O_____O___O_O_ jtwc_sh SH261984 -21.5000 116.300 65 1 -21.8000 116.100 21 50 975 -21.8000 116.100 4 65 -21.8000 116.100 TC 60 975 8 229
1984057S14124 1984 22 SI WA CHLOE 1984-03-01 03:00:00 TS -21.9399 115.825 40 975 bom main 0 0 P_____O___P_P_ SH261984 -21.8574 115.937 60 0 -21.9000 115.800 30 40 975 -22.0449 115.763 4 58 -21.9574 115.800 TC 52 982 8 235
1984057S14124 1984 22 SI WA CHLOE 1984-03-01 06:00:00 TS -22.1650 115.482 30 990 bom main 0 0 O_____O___P_O_ jtwc_sh SH261984 -22.2000 115.500 55 0 -22.1000 115.500 20 30 990 -22.2600 115.427 4 51 -22.1000 115.500 TC 45 990 8 233
1984057S14124 1984 22 SI WA CHLOE 1984-03-01 09:00:00 TS -22.4313 115.110 30 990 bom main 0 0 P_____O___P_P_ SH261984 -22.5227 114.985 50 0 -22.4000 115.200 20 30 990 -22.4450 115.103 4 44 -22.3575 115.150 TC 40 993 9 235
1984057S14124 1984 22 SI WA CHLOE 1984-03-01 12:00:00 TS -22.6500 114.725 30 996 bom main 0 0 O_____O___O_O_ jtwc_sh SH261984 -22.8000 114.500 45 0 -22.6000 114.800 20 30 996 -22.6000 114.800 2 38 -22.6000 114.800 TC 35 996 7 238
1984057S14124 1984 22 SI WA CHLOE 1984-03-01 15:00:00 TS -22.8253 114.428 30 998 bom main 0 0 P_____O___P_P_ SH261984 -23.0298 114.147 40 0 -22.8000 114.600 20 30 998 -22.7491 114.488 2 36 -22.7225 114.477 TC 32 997 6 245
1984057S14124 1984 22 SI WA CHLOE 1984-03-01 18:00:00 TS -22.8980 114.141 30 999 bom main 0 0 O_____O___P_O_ jtwc_sh SH261984 -23.2000 113.900 35 0 -22.8000 114.200 20 30 999 -22.8675 114.202 2 35 -22.8000 114.200 TC 30 999 5 252
1984057S14124 1984 22 SI WA CHLOE 1984-03-01 21:00:00 TS -22.9806 113.910 30 1000 bom main 0 0 P_____O___P_P_ SH261984 -23.3151 113.730 32 -1 -22.9000 113.900 20 30 1000 -22.9522 113.966 2 33 -22.9225 113.955 TC 30 999 4 248
1984057S14124 1984 22 SI WA CHLOE 1984-03-02 00:00:00 TS -23.0308 113.785 30 999 bom main 0 0 O_____O___O_O_ jtwc_sh SH261984 -23.4000 113.600 30 -1 -23.0000 113.800 20 30 999 -23.0000 113.800 1 32 -23.0000 113.800 TC 30 999 1 266
1984057S14124 1984 22 SI WA CHLOE 1984-03-02 03:00:00 TS -22.9892 113.765 25 999 bom main 0 0 ______O___P_P_ SH261984 -1 -23.0000 113.800 20 25 999 -23.0026 113.724 1 30 -22.9650 113.770 TC 30 999 1 0
1984057S14124 1984 22 SI WA CHLOE 1984-03-02 06:00:00 TS -22.9241 113.772 25 999 bom main 0 0 ______O___P_O_ -1 -22.9000 113.800 20 25 999 -22.9722 113.717 1 29 -22.9000 113.800 TC 30 999 1 0
1984057S14124 1984 22 SI WA CHLOE 1984-03-02 09:00:00 TS -22.9053 113.782 25 999 bom main 0 0 ______O___P_P_ -1 -22.9000 113.800 20 25 999 -22.9308 113.752 1 28 -22.8850 113.793 TC 30 999 0 0
1984057S14124 1984 22 SI WA CHLOE 1984-03-02 12:00:00 TS -22.9000 113.800 25 1000 bom main 0 0 ______O___O_O_ -1 -22.9000 113.800 20 25 1000 -22.9000 113.800 1 27 -22.9000 113.800 TC 30 1000 1 147
1984057S14124 1984 22 SI WA CHLOE 1984-03-02 15:00:00 TS -22.9522 113.820 25 1001 bom main 0 0 ______O___P_P_ -1 -23.0000 113.800 20 25 1001 -22.9065 113.810 1 27 -22.9500 113.850 TC 27 1000 1 136
1984057S14124 1984 22 SI WA CHLOE 1984-03-02 18:00:00 TS -22.9758 113.876 25 1001 bom main 0 0 ______O___P_O_ -1 -23.0000 113.900 20 25 1001 -22.9275 113.828 1 27 -23.0000 113.900 TC 25 1001 1 116
1984057S14124 1984 22 SI WA CHLOE 1984-03-02 21:00:00 TS -22.9866 113.888 25 1001 bom main 0 0 ______O___P_P_ -1 -23.0000 113.900 20 25 1001 -22.9597 113.857 1 27 -23.0000 113.908 TC 25 1001 0 0
1984057S14124 1984 22 SI WA CHLOE 1984-03-03 00:00:00 TS -23.0000 113.900 25 1001 bom main 0 0 ______O___O_O_ -1 -23.0000 113.900 20 25 1001 -23.0000 113.900 1 27 -23.0000 113.900 TC 25 1001 0 0
1984057S14124 1984 22 SI WA CHLOE 1984-03-03 03:00:00 TS -23.0294 113.912 20 1001 bom main 0 0 ______O___P_P_ -1 -23.0000 113.900 20 20 1001 -23.0457 113.960 1 27 -23.0425 113.878 TC 25 1001 1 160
1984057S14124 1984 22 SI WA CHLOE 1984-03-03 06:00:00 TS -23.0985 113.940 20 1001 bom main 0 0 ______O___P_O_ -1 -23.1000 113.900 20 20 1001 -23.0951 114.032 1 27 -23.1000 113.900 TC 25 1001 2 140
1984057S14124 1984 22 SI WA CHLOE 1984-03-03 09:00:00 TS -23.1713 114.038 20 1000 bom main 0 0 ______O___P_P_ -1 -23.2000 114.000 20 20 1000 -23.1469 114.114 1 27 -23.1526 114.020 TC 25 1001 3 113
1984057S14124 1984 22 SI WA CHLOE 1984-03-03 12:00:00 TS -23.2000 114.200 20 1002 bom main 0 0 ______O___O_O_ -1 -23.2000 114.200 20 20 1002 -23.2000 114.200 1 27 -23.2000 114.200 TC 25 1002 6 93
1984057S14124 1984 22 SI WA CHLOE 1984-03-03 15:00:00 NR -23.2000 114.700 20 1002 bom main 0 ______O_______ -1 -23.2000 114.700 20 20 1002 1 TC 9 90

IBTrACS Databaseについて

本データベースは、米国NOAAが公開する1842年以降の世界の熱帯低気圧のベストトラックデータアーカイブInternational Best Track Archive for Climate Stewardship (IBTrACS)を、ウェブで閲覧しやすい形式に変換したものです。

最終更新日:2021-12-06